NORTHEAST SUFFOLK  -  Special Weather Statement Special Weather Statement        NORTHERN NASSAU  -  Special Weather Statement Special Weather Statement        NORTHWEST SUFFOLK  -  Special Weather Statement Special Weather Statement        SOUTHEAST SUFFOLK  -  Special Weather Statement Special Weather Statement        SOUTHERN NASSAU  -  Special Weather Statement Special Weather Statement        SOUTHWEST SUFFOLK  -  Special Weather Statement Special Weather Statement      

Active alerts

Northern Nassau
  Details for Northern Nassau Special Weather Statement
Southern Nassau
  Details for Southern Nassau Special Weather Statement
Northwest Suffolk
  Details for Northwest Suffolk Special Weather Statement
Southwest Suffolk
  Details for Southwest Suffolk Special Weather Statement
Northeast Suffolk
  Details for Northeast Suffolk Special Weather Statement
Southeast Suffolk
  Details for Southeast Suffolk Special Weather Statement


WXM80 ListenWXM80 Stop

You find our weather info also at:

UK Metoffice

WeatherCloud

Weather Underground

Northeastern Weather Network

AWEKAS

Citizen Weather Observer Program (CWOP)

HAMweather, WeatherForYou, PWS Weather


Weather Underground History page Text

Daily Summary for June 12, 2017 Units:  Both    English   Metric
« Previous Day
Next Day »
Daily Weekly Monthly Yearly Custom
  High: Low: Average:
Temperature: 98.4 °F /  36.9 °C 71.7 °F /  22.1 °C 84.2 °F /  29 °C
Dew Point: 72.5 °F /  22.5 °C 64.8 °F /  18.2 °C 67 °F /  19.4 °C
Humidity: 80 % 35 % 59 %
Wind Speed: 6.0 mph /  9.7 km/h - 1.7 mph /  2.7 km/h
Wind Gust: 9.2 mph /  14.8 km/h - -
Wind:- - SW
Pressure: 29.99 in /  1015.5 hPa 29.86 in /  1011.1 hPa -
Precipitation: 0.00 in /  0 mm    
Historical Graphs
 
 
Tabular Data for June 12, 2017
Time Temperature Dew Point Pressure Wind Wind Speed Wind Gust Humidity Rainfall Rate (Hourly)
00:04 75.4 °F /  24.1 °C 65.3 °F /  18.5 °C 29.95 in /  1014.1 hPa SW 2.1 mph /  3.4 km/h 3.5 mph /  5.6 km/h 71 % 0.00 in /  0 mm
00:09 75.5 °F /  24.2 °C 65.4 °F /  18.6 °C 29.95 in /  1014.1 hPa South 0.5 mph /  0.8 km/h 4.6 mph /  7.4 km/h 71 % 0.00 in /  0 mm
00:14 75.5 °F /  24.2 °C 65.4 °F /  18.6 °C 29.94 in /  1013.8 hPa SW 2.3 mph /  3.7 km/h 3.5 mph /  5.6 km/h 71 % 0.00 in /  0 mm
00:19 75.6 °F /  24.2 °C 65.5 °F /  18.6 °C 29.94 in /  1013.8 hPa WSW 0.9 mph /  1.4 km/h 2.0 mph /  3.2 km/h 71 % 0.00 in /  0 mm
00:24 75.6 °F /  24.2 °C 65.5 °F /  18.6 °C 29.94 in /  1013.8 hPa Calm   1.2 mph /  1.9 km/h 71 % 0.00 in /  0 mm
00:29 75.7 °F /  24.3 °C 65.6 °F /  18.7 °C 29.95 in /  1014.1 hPa WSW 1.2 mph /  1.9 km/h 4.6 mph /  7.4 km/h 71 % 0.00 in /  0 mm
00:34 75.8 °F /  24.3 °C 65.7 °F /  18.7 °C 29.95 in /  1014.1 hPa SW 1.4 mph /  2.3 km/h 2.3 mph /  3.7 km/h 71 % 0.00 in /  0 mm
00:39 75.9 °F /  24.4 °C 65.8 °F /  18.8 °C 29.95 in /  1014.1 hPa SW 0.4 mph /  0.6 km/h 1.2 mph /  1.9 km/h 71 % 0.00 in /  0 mm
00:49 75.9 °F /  24.4 °C 65.8 °F /  18.8 °C 29.95 in /  1014.1 hPa SW 0.7 mph /  1.1 km/h 1.2 mph /  1.9 km/h 71 % 0.00 in /  0 mm
01:00 75.9 °F /  24.4 °C 65.8 °F /  18.8 °C 29.95 in /  1014.1 hPa SW 1.1 mph /  1.8 km/h 2.3 mph /  3.7 km/h 71 % 0.00 in /  0 mm
01:05 75.9 °F /  24.4 °C 65.8 °F /  18.8 °C 29.94 in /  1013.8 hPa SW 1.7 mph /  2.7 km/h 3.5 mph /  5.6 km/h 71 % 0.00 in /  0 mm
01:10 75.9 °F /  24.4 °C 65.8 °F /  18.8 °C 29.94 in /  1013.8 hPa SW 1.2 mph /  1.9 km/h 3.5 mph /  5.6 km/h 71 % 0.00 in /  0 mm
01:15 75.8 °F /  24.3 °C 65.7 °F /  18.7 °C 29.95 in /  1014.1 hPa SW 1.6 mph /  2.6 km/h 3.5 mph /  5.6 km/h 71 % 0.00 in /  0 mm
01:20 75.8 °F /  24.3 °C 66.1 °F /  18.9 °C 29.94 in /  1013.8 hPa SW 0.7 mph /  1.1 km/h 3.0 mph /  4.8 km/h 72 % 0.00 in /  0 mm
01:21 75.8 °F /  24.3 °C 66.1 °F /  18.9 °C 29.94 in /  1013.8 hPa SW 0.5 mph /  0.8 km/h 3.5 mph /  5.6 km/h 72 % 0.00 in /  0 mm
01:26 75.7 °F /  24.3 °C 66.0 °F /  18.9 °C 29.94 in /  1013.8 hPa SW 1.3 mph /  2.1 km/h 3.0 mph /  4.8 km/h 72 % 0.00 in /  0 mm
01:31 75.7 °F /  24.3 °C 66.0 °F /  18.9 °C 29.94 in /  1013.8 hPa SW 2.2 mph /  3.5 km/h 3.5 mph /  5.6 km/h 72 % 0.00 in /  0 mm
01:36 75.7 °F /  24.3 °C 66.0 °F /  18.9 °C 29.94 in /  1013.8 hPa SW 0.9 mph /  1.4 km/h 3.5 mph /  5.6 km/h 72 % 0.00 in /  0 mm
01:42 75.7 °F /  24.3 °C 66.0 °F /  18.9 °C 29.94 in /  1013.8 hPa SW 3.9 mph /  6.3 km/h 8.1 mph /  13 km/h 72 % 0.00 in /  0 mm
01:47 75.6 °F /  24.2 °C 65.9 °F /  18.8 °C 29.94 in /  1013.8 hPa WSW 2.7 mph /  4.3 km/h 3.5 mph /  5.6 km/h 72 % 0.00 in /  0 mm
01:52 75.6 °F /  24.2 °C 65.9 °F /  18.8 °C 29.94 in /  1013.8 hPa SSW 3.1 mph /  5 km/h 4.0 mph /  6.4 km/h 72 % 0.00 in /  0 mm
01:57 75.6 °F /  24.2 °C 65.9 °F /  18.8 °C 29.94 in /  1013.8 hPa WSW 2.2 mph /  3.5 km/h 3.5 mph /  5.6 km/h 72 % 0.00 in /  0 mm
01:58 75.6 °F /  24.2 °C 65.9 °F /  18.8 °C 29.94 in /  1013.8 hPa WSW 0.6 mph /  1 km/h 3.5 mph /  5.6 km/h 72 % 0.00 in /  0 mm
02:03 75.6 °F /  24.2 °C 65.9 °F /  18.8 °C 29.94 in /  1013.8 hPa SW 0.2 mph /  0.3 km/h 3.5 mph /  5.6 km/h 72 % 0.00 in /  0 mm
02:09 75.6 °F /  24.2 °C 66.3 °F /  19.1 °C 29.94 in /  1013.8 hPa SSW 2.2 mph /  3.5 km/h 4.6 mph /  7.4 km/h 73 % 0.00 in /  0 mm
02:14 75.5 °F /  24.2 °C 66.2 °F /  19 °C 29.94 in /  1013.8 hPa SW 2.4 mph /  3.9 km/h 3.5 mph /  5.6 km/h 73 % 0.00 in /  0 mm
02:19 75.5 °F /  24.2 °C 66.2 °F /  19 °C 29.93 in /  1013.4 hPa SSW 1.3 mph /  2.1 km/h 3.5 mph /  5.6 km/h 73 % 0.00 in /  0 mm
02:24 75.4 °F /  24.1 °C 66.1 °F /  18.9 °C 29.93 in /  1013.4 hPa SW 1.6 mph /  2.6 km/h 4.6 mph /  7.4 km/h 73 % 0.00 in /  0 mm
02:29 75.4 °F /  24.1 °C 66.1 °F /  18.9 °C 29.93 in /  1013.4 hPa SW 0.1 mph /  0.2 km/h 1.2 mph /  1.9 km/h 73 % 0.00 in /  0 mm
02:34 75.3 °F /  24.1 °C 66.0 °F /  18.9 °C 29.93 in /  1013.4 hPa SW 2.3 mph /  3.7 km/h 3.5 mph /  5.6 km/h 73 % 0.00 in /  0 mm
02:39 75.3 °F /  24.1 °C 66.0 °F /  18.9 °C 29.93 in /  1013.4 hPa SW 1.5 mph /  2.4 km/h 3.5 mph /  5.6 km/h 73 % 0.00 in /  0 mm
02:44 75.1 °F /  23.9 °C 66.2 °F /  19 °C 29.93 in /  1013.4 hPa WSW 2.5 mph /  4 km/h 3.5 mph /  5.6 km/h 74 % 0.00 in /  0 mm
02:49 75.0 °F /  23.9 °C 66.1 °F /  18.9 °C 29.93 in /  1013.4 hPa SW 0.5 mph /  0.8 km/h 3.0 mph /  4.8 km/h 74 % 0.00 in /  0 mm
02:54 74.9 °F /  23.8 °C 66.1 °F /  18.9 °C 29.94 in /  1013.8 hPa SW 1.6 mph /  2.6 km/h 3.5 mph /  5.6 km/h 74 % 0.00 in /  0 mm
02:59 74.9 °F /  23.8 °C 66.1 °F /  18.9 °C 29.94 in /  1013.8 hPa SW 0.6 mph /  1 km/h 2.3 mph /  3.7 km/h 74 % 0.00 in /  0 mm
03:04 74.8 °F /  23.8 °C 66.0 °F /  18.9 °C 29.94 in /  1013.8 hPa SW 0.3 mph /  0.5 km/h 2.3 mph /  3.7 km/h 74 % 0.00 in /  0 mm
03:09 74.7 °F /  23.7 °C 65.9 °F /  18.8 °C 29.93 in /  1013.4 hPa SW 0.4 mph /  0.6 km/h 1.2 mph /  1.9 km/h 74 % 0.00 in /  0 mm
03:14 74.6 °F /  23.7 °C 65.8 °F /  18.8 °C 29.94 in /  1013.8 hPa SW 0.4 mph /  0.6 km/h 1.2 mph /  1.9 km/h 74 % 0.00 in /  0 mm
03:19 74.5 °F /  23.6 °C 66.1 °F /  18.9 °C 29.94 in /  1013.8 hPa SW 0.5 mph /  0.8 km/h 2.3 mph /  3.7 km/h 75 % 0.00 in /  0 mm
03:24 74.4 °F /  23.6 °C 66.0 °F /  18.9 °C 29.94 in /  1013.8 hPa SW 1.7 mph /  2.7 km/h 3.5 mph /  5.6 km/h 75 % 0.00 in /  0 mm
03:26 74.4 °F /  23.6 °C 66.0 °F /  18.9 °C 29.93 in /  1013.4 hPa Calm   1.2 mph /  1.9 km/h 75 % 0.00 in /  0 mm
03:31 74.2 °F /  23.4 °C 65.8 °F /  18.8 °C 29.94 in /  1013.8 hPa Calm   3.5 mph /  5.6 km/h 75 % 0.00 in /  0 mm
03:36 74.1 °F /  23.4 °C 65.7 °F /  18.7 °C 29.94 in /  1013.8 hPa Calm   2.3 mph /  3.7 km/h 75 % 0.00 in /  0 mm
03:41 74.0 °F /  23.3 °C 66.0 °F /  18.9 °C 29.94 in /  1013.8 hPa SW 0.9 mph /  1.4 km/h 2.3 mph /  3.7 km/h 76 % 0.00 in /  0 mm
03:46 73.9 °F /  23.3 °C 65.9 °F /  18.8 °C 29.94 in /  1013.8 hPa SW 0.4 mph /  0.6 km/h 3.5 mph /  5.6 km/h 76 % 0.00 in /  0 mm
03:51 73.8 °F /  23.2 °C 65.8 °F /  18.8 °C 29.94 in /  1013.8 hPa WSW 0.5 mph /  0.8 km/h 2.3 mph /  3.7 km/h 76 % 0.00 in /  0 mm
03:56 73.7 °F /  23.2 °C 65.7 °F /  18.7 °C 29.94 in /  1013.8 hPa WSW 1.3 mph /  2.1 km/h 3.5 mph /  5.6 km/h 76 % 0.00 in /  0 mm
04:01 73.7 °F /  23.2 °C 66.0 °F /  18.9 °C 29.95 in /  1014.1 hPa WSW 0.7 mph /  1.1 km/h 2.3 mph /  3.7 km/h 77 % 0.00 in /  0 mm
04:06 73.5 °F /  23.1 °C 65.8 °F /  18.8 °C 29.95 in /  1014.1 hPa WSW 0.9 mph /  1.4 km/h 3.5 mph /  5.6 km/h 77 % 0.00 in /  0 mm
04:11 73.5 °F /  23.1 °C 65.8 °F /  18.8 °C 29.95 in /  1014.1 hPa SW 1.2 mph /  1.9 km/h 2.0 mph /  3.2 km/h 77 % 0.00 in /  0 mm
04:16 73.4 °F /  23 °C 65.7 °F /  18.7 °C 29.95 in /  1014.1 hPa WSW 1.1 mph /  1.8 km/h 2.0 mph /  3.2 km/h 77 % 0.00 in /  0 mm
04:21 73.3 °F /  22.9 °C 65.7 °F /  18.7 °C 29.95 in /  1014.1 hPa WSW 0.8 mph /  1.3 km/h 3.5 mph /  5.6 km/h 77 % 0.00 in /  0 mm
04:27 73.3 °F /  22.9 °C 65.7 °F /  18.7 °C 29.94 in /  1013.8 hPa SW 2.4 mph /  3.9 km/h 3.5 mph /  5.6 km/h 77 % 0.00 in /  0 mm
04:32 73.2 °F /  22.9 °C 65.9 °F /  18.8 °C 29.94 in /  1013.8 hPa SW 2.1 mph /  3.4 km/h 4.6 mph /  7.4 km/h 78 % 0.00 in /  0 mm
04:37 73.1 °F /  22.8 °C 65.8 °F /  18.8 °C 29.95 in /  1014.1 hPa SW 1.9 mph /  3.1 km/h 3.5 mph /  5.6 km/h 78 % 0.00 in /  0 mm
04:42 73.0 °F /  22.8 °C 65.7 °F /  18.7 °C 29.95 in /  1014.1 hPa SW 2.1 mph /  3.4 km/h 3.5 mph /  5.6 km/h 78 % 0.00 in /  0 mm
04:47 72.9 °F /  22.7 °C 65.6 °F /  18.7 °C 29.96 in /  1014.4 hPa SSW 2.0 mph /  3.2 km/h 3.5 mph /  5.6 km/h 78 % 0.00 in /  0 mm
04:52 72.8 °F /  22.7 °C 65.5 °F /  18.6 °C 29.96 in /  1014.4 hPa SW 2.8 mph /  4.5 km/h 3.5 mph /  5.6 km/h 78 % 0.00 in /  0 mm
04:57 72.7 °F /  22.6 °C 65.8 °F /  18.8 °C 29.96 in /  1014.4 hPa SW 1.3 mph /  2.1 km/h 3.5 mph /  5.6 km/h 79 % 0.00 in /  0 mm
05:02 72.6 °F /  22.6 °C 65.3 °F /  18.5 °C 29.96 in /  1014.4 hPa SW 0.7 mph /  1.1 km/h 3.5 mph /  5.6 km/h 78 % 0.00 in /  0 mm
05:07 72.5 °F /  22.5 °C 65.2 °F /  18.4 °C 29.96 in /  1014.4 hPa SW 0.8 mph /  1.3 km/h 2.3 mph /  3.7 km/h 78 % 0.00 in /  0 mm
05:12 72.4 °F /  22.4 °C 65.5 °F /  18.6 °C 29.96 in /  1014.4 hPa SW 1.8 mph /  2.9 km/h 2.3 mph /  3.7 km/h 79 % 0.00 in /  0 mm
05:17 72.2 °F /  22.3 °C 65.3 °F /  18.5 °C 29.96 in /  1014.4 hPa WSW 2.0 mph /  3.2 km/h 4.0 mph /  6.4 km/h 79 % 0.00 in /  0 mm
05:22 72.1 °F /  22.3 °C 65.2 °F /  18.4 °C 29.96 in /  1014.4 hPa SSW 2.1 mph /  3.4 km/h 3.5 mph /  5.6 km/h 79 % 0.00 in /  0 mm
05:27 72.0 °F /  22.2 °C 65.1 °F /  18.4 °C 29.96 in /  1014.4 hPa SSW 2.6 mph /  4.2 km/h 5.8 mph /  9.3 km/h 79 % 0.00 in /  0 mm
05:32 71.9 °F /  22.2 °C 65.4 °F /  18.6 °C 29.96 in /  1014.4 hPa SW 2.3 mph /  3.7 km/h 3.5 mph /  5.6 km/h 80 % 0.00 in /  0 mm
05:37 71.8 °F /  22.1 °C 64.9 °F /  18.3 °C 29.97 in /  1014.8 hPa SW 2.3 mph /  3.7 km/h 3.5 mph /  5.6 km/h 79 % 0.00 in /  0 mm
05:42 71.8 °F /  22.1 °C 65.3 °F /  18.5 °C 29.97 in /  1014.8 hPa SW 2.2 mph /  3.5 km/h 3.5 mph /  5.6 km/h 80 % 0.00 in /  0 mm
05:47 71.7 °F /  22.1 °C 64.8 °F /  18.2 °C 29.97 in /  1014.8 hPa SSW 2.3 mph /  3.7 km/h 3.5 mph /  5.6 km/h 79 % 0.00 in /  0 mm
05:52 71.7 °F /  22.1 °C 64.8 °F /  18.2 °C 29.97 in /  1014.8 hPa SW 1.4 mph /  2.3 km/h 3.5 mph /  5.6 km/h 79 % 0.00 in /  0 mm
05:57 71.7 °F /  22.1 °C 64.8 °F /  18.2 °C 29.97 in /  1014.8 hPa SW 2.2 mph /  3.5 km/h 3.5 mph /  5.6 km/h 79 % 0.00 in /  0 mm
06:02 71.7 °F /  22.1 °C 64.8 °F /  18.2 °C 29.98 in /  1015.1 hPa WSW 2.3 mph /  3.7 km/h 3.5 mph /  5.6 km/h 79 % 0.00 in /  0 mm
06:07 71.8 °F /  22.1 °C 64.9 °F /  18.3 °C 29.98 in /  1015.1 hPa SW 2.6 mph /  4.2 km/h 4.0 mph /  6.4 km/h 79 % 0.00 in /  0 mm
06:12 71.8 °F /  22.1 °C 64.9 °F /  18.3 °C 29.98 in /  1015.1 hPa SW 2.9 mph /  4.7 km/h 4.0 mph /  6.4 km/h 79 % 0.00 in /  0 mm
06:17 71.9 °F /  22.2 °C 65.0 °F /  18.3 °C 29.98 in /  1015.1 hPa SW 3.2 mph /  5.1 km/h 4.0 mph /  6.4 km/h 79 % 0.00 in /  0 mm
06:22 72.0 °F /  22.2 °C 65.1 °F /  18.4 °C 29.99 in /  1015.5 hPa SW 2.9 mph /  4.7 km/h 4.0 mph /  6.4 km/h 79 % 0.00 in /  0 mm
06:27 72.1 °F /  22.3 °C 65.2 °F /  18.4 °C 29.98 in /  1015.1 hPa SW 3.1 mph /  5 km/h 3.5 mph /  5.6 km/h 79 % 0.00 in /  0 mm
06:32 72.3 °F /  22.4 °C 65.1 °F /  18.4 °C 29.99 in /  1015.5 hPa SW 3.0 mph /  4.8 km/h 6.9 mph /  11.1 km/h 78 % 0.00 in /  0 mm
06:37 72.6 °F /  22.6 °C 65.0 °F /  18.3 °C 29.99 in /  1015.5 hPa SW 1.9 mph /  3.1 km/h 3.5 mph /  5.6 km/h 77 % 0.00 in /  0 mm
06:42 72.9 °F /  22.7 °C 65.3 °F /  18.5 °C 29.99 in /  1015.5 hPa SW 2.7 mph /  4.3 km/h 3.5 mph /  5.6 km/h 77 % 0.00 in /  0 mm
06:47 73.2 °F /  22.9 °C 65.6 °F /  18.7 °C 29.99 in /  1015.5 hPa SW 2.8 mph /  4.5 km/h 4.0 mph /  6.4 km/h 77 % 0.00 in /  0 mm
06:52 73.5 °F /  23.1 °C 65.8 °F /  18.8 °C 29.99 in /  1015.5 hPa SW 2.7 mph /  4.3 km/h 4.0 mph /  6.4 km/h 77 % 0.00 in /  0 mm
06:57 73.9 °F /  23.3 °C 65.9 °F /  18.8 °C 29.99 in /  1015.5 hPa SW 3.3 mph /  5.3 km/h 4.0 mph /  6.4 km/h 76 % 0.00 in /  0 mm
07:02 74.3 °F /  23.5 °C 65.9 °F /  18.8 °C 29.99 in /  1015.5 hPa SW 3.1 mph /  5 km/h 4.0 mph /  6.4 km/h 75 % 0.00 in /  0 mm
07:07 74.7 °F /  23.7 °C 65.9 °F /  18.8 °C 29.98 in /  1015.1 hPa SW 3.0 mph /  4.8 km/h 4.0 mph /  6.4 km/h 74 % 0.00 in /  0 mm
07:12 75.1 °F /  23.9 °C 65.9 °F /  18.8 °C 29.98 in /  1015.1 hPa SSW 3.7 mph /  6 km/h 6.9 mph /  11.1 km/h 73 % 0.00 in /  0 mm
07:17 75.7 °F /  24.3 °C 66.0 °F /  18.9 °C 29.99 in /  1015.5 hPa SW 3.5 mph /  5.6 km/h 5.8 mph /  9.3 km/h 72 % 0.00 in /  0 mm
07:23 76.1 °F /  24.5 °C 66.4 °F /  19.1 °C 29.99 in /  1015.5 hPa SW 3.4 mph /  5.5 km/h 4.6 mph /  7.4 km/h 72 % 0.00 in /  0 mm
07:28 76.6 °F /  24.8 °C 66.5 °F /  19.2 °C 29.99 in /  1015.5 hPa West 1.5 mph /  2.4 km/h 3.5 mph /  5.6 km/h 71 % 0.00 in /  0 mm
07:33 77.0 °F /  25 °C 66.0 °F /  18.9 °C 29.99 in /  1015.5 hPa SSW 2.9 mph /  4.7 km/h 7.0 mph /  11.3 km/h 69 % 0.00 in /  0 mm
07:35 77.2 °F /  25.1 °C 65.8 °F /  18.8 °C 29.99 in /  1015.5 hPa WNW 3.2 mph /  5.1 km/h 6.9 mph /  11.1 km/h 68 % 0.00 in /  0 mm
07:39 77.5 °F /  25.3 °C 66.5 °F /  19.2 °C 29.99 in /  1015.5 hPa SW 3.6 mph /  5.8 km/h 5.8 mph /  9.3 km/h 69 % 0.00 in /  0 mm
07:45 77.8 °F /  25.4 °C 66.4 °F /  19.1 °C 29.99 in /  1015.5 hPa West 2.3 mph /  3.7 km/h 3.5 mph /  5.6 km/h 68 % 0.00 in /  0 mm
07:50 78.0 °F /  25.6 °C 65.7 °F /  18.7 °C 29.99 in /  1015.5 hPa West 3.2 mph /  5.1 km/h 4.6 mph /  7.4 km/h 66 % 0.00 in /  0 mm
07:55 78.2 °F /  25.7 °C 65.9 °F /  18.8 °C 29.99 in /  1015.5 hPa WSW 1.0 mph /  1.6 km/h 3.5 mph /  5.6 km/h 66 % 0.00 in /  0 mm
08:00 78.3 °F /  25.7 °C 66.0 °F /  18.9 °C 29.99 in /  1015.5 hPa SW 2.7 mph /  4.3 km/h 6.0 mph /  9.7 km/h 66 % 0.00 in /  0 mm
08:05 78.5 °F /  25.8 °C 65.8 °F /  18.8 °C 29.99 in /  1015.5 hPa WSW 4.5 mph /  7.2 km/h 6.9 mph /  11.1 km/h 65 % 0.00 in /  0 mm
08:10 78.7 °F /  25.9 °C 65.9 °F /  18.8 °C 29.99 in /  1015.5 hPa WSW 2.7 mph /  4.3 km/h 5.0 mph /  8 km/h 65 % 0.00 in /  0 mm
08:15 78.8 °F /  26 °C 66.0 °F /  18.9 °C 29.99 in /  1015.5 hPa West 2.5 mph /  4 km/h 5.8 mph /  9.3 km/h 65 % 0.00 in /  0 mm
08:20 79.0 °F /  26.1 °C 66.2 °F /  19 °C 29.99 in /  1015.5 hPa West 4.1 mph /  6.6 km/h 5.8 mph /  9.3 km/h 65 % 0.00 in /  0 mm
08:25 79.1 °F /  26.2 °C 66.8 °F /  19.3 °C 29.99 in /  1015.5 hPa WSW 1.0 mph /  1.6 km/h 3.5 mph /  5.6 km/h 66 % 0.00 in /  0 mm
08:30 79.3 °F /  26.3 °C 66.1 °F /  18.9 °C 29.99 in /  1015.5 hPa SW 2.7 mph /  4.3 km/h 3.5 mph /  5.6 km/h 64 % 0.00 in /  0 mm
08:35 79.5 °F /  26.4 °C 66.7 °F /  19.3 °C 29.99 in /  1015.5 hPa WSW 2.7 mph /  4.3 km/h 8.0 mph /  12.9 km/h 65 % 0.00 in /  0 mm
08:40 79.8 °F /  26.6 °C 66.1 °F /  18.9 °C 29.99 in /  1015.5 hPa WSW 3.1 mph /  5 km/h 5.8 mph /  9.3 km/h 63 % 0.00 in /  0 mm
08:45 80.0 °F /  26.7 °C 66.7 °F /  19.3 °C 29.99 in /  1015.5 hPa SSW 2.1 mph /  3.4 km/h 5.0 mph /  8 km/h 64 % 0.00 in /  0 mm
08:50 80.2 °F /  26.8 °C 66.5 °F /  19.2 °C 29.99 in /  1015.5 hPa SW 2.8 mph /  4.5 km/h 4.0 mph /  6.4 km/h 63 % 0.00 in /  0 mm
08:55 80.3 °F /  26.8 °C 66.6 °F /  19.2 °C 29.99 in /  1015.5 hPa WNW 3.2 mph /  5.1 km/h 4.6 mph /  7.4 km/h 63 % 0.00 in /  0 mm
09:00 80.5 °F /  26.9 °C 65.8 °F /  18.8 °C 29.99 in /  1015.5 hPa SW 4.6 mph /  7.4 km/h 6.0 mph /  9.7 km/h 61 % 0.00 in /  0 mm
09:05 80.7 °F /  27.1 °C 66.0 °F /  18.9 °C 29.99 in /  1015.5 hPa WSW 3.6 mph /  5.8 km/h 5.8 mph /  9.3 km/h 61 % 0.00 in /  0 mm
09:10 80.8 °F /  27.1 °C 66.1 °F /  18.9 °C 29.99 in /  1015.5 hPa West 1.0 mph /  1.6 km/h 4.6 mph /  7.4 km/h 61 % 0.00 in /  0 mm
09:15 80.9 °F /  27.2 °C 66.2 °F /  19 °C 29.98 in /  1015.1 hPa SW 3.3 mph /  5.3 km/h 4.6 mph /  7.4 km/h 61 % 0.00 in /  0 mm
09:20 81.0 °F /  27.2 °C 66.3 °F /  19.1 °C 29.98 in /  1015.1 hPa WSW 3.3 mph /  5.3 km/h 5.8 mph /  9.3 km/h 61 % 0.00 in /  0 mm
09:26 81.2 °F /  27.3 °C 66.0 °F /  18.9 °C 29.98 in /  1015.1 hPa WSW 2.0 mph /  3.2 km/h 6.0 mph /  9.7 km/h 60 % 0.00 in /  0 mm
09:31 81.4 °F /  27.4 °C 66.7 °F /  19.3 °C 29.98 in /  1015.1 hPa WSW 3.0 mph /  4.8 km/h 6.0 mph /  9.7 km/h 61 % 0.00 in /  0 mm
09:36 81.6 °F /  27.6 °C 66.4 °F /  19.1 °C 29.98 in /  1015.1 hPa SW 3.0 mph /  4.8 km/h 8.0 mph /  12.9 km/h 60 % 0.00 in /  0 mm
09:39 81.8 °F /  27.7 °C 66.6 °F /  19.2 °C 29.98 in /  1015.1 hPa WSW 3.8 mph /  6.1 km/h 4.6 mph /  7.4 km/h 60 % 0.00 in /  0 mm
09:44 82.4 °F /  28 °C 67.1 °F /  19.5 °C 29.97 in /  1014.8 hPa WSW 3.8 mph /  6.1 km/h 9.2 mph /  14.8 km/h 60 % 0.00 in /  0 mm
09:49 83.1 °F /  28.4 °C 67.3 °F /  19.6 °C 29.98 in /  1015.1 hPa West 5.8 mph /  9.3 km/h 8.1 mph /  13 km/h 59 % 0.00 in /  0 mm
09:54 83.9 °F /  28.8 °C 68.5 °F /  20.3 °C 29.97 in /  1014.8 hPa SW 3.5 mph /  5.6 km/h 6.0 mph /  9.7 km/h 60 % 0.00 in /  0 mm
09:59 84.7 °F /  29.3 °C 68.3 °F /  20.2 °C 29.97 in /  1014.8 hPa West 3.1 mph /  5 km/h 5.8 mph /  9.3 km/h 58 % 0.00 in /  0 mm
10:04 85.6 °F /  29.8 °C 68.1 °F /  20.1 °C 29.97 in /  1014.8 hPa WNW 2.1 mph /  3.4 km/h 3.5 mph /  5.6 km/h 56 % 0.00 in /  0 mm
10:09 86.3 °F /  30.2 °C 68.8 °F /  20.4 °C 29.97 in /  1014.8 hPa WNW 0.6 mph /  1 km/h 4.6 mph /  7.4 km/h 56 % 0.00 in /  0 mm
10:14 87.2 °F /  30.7 °C 68.0 °F /  20 °C 29.97 in /  1014.8 hPa WNW 2.7 mph /  4.3 km/h 6.0 mph /  9.7 km/h 53 % 0.00 in /  0 mm
10:19 88.0 °F /  31.1 °C 69.3 °F /  20.7 °C 29.97 in /  1014.8 hPa SW 0.7 mph /  1.1 km/h 4.6 mph /  7.4 km/h 54 % 0.00 in /  0 mm
10:24 88.8 °F /  31.6 °C 68.9 °F /  20.5 °C 29.97 in /  1014.8 hPa WNW 3.6 mph /  5.8 km/h 5.8 mph /  9.3 km/h 52 % 0.00 in /  0 mm
10:29 89.6 °F /  32 °C 70.2 °F /  21.2 °C 29.97 in /  1014.8 hPa West 2.0 mph /  3.2 km/h 5.8 mph /  9.3 km/h 53 % 0.00 in /  0 mm
10:34 90.2 °F /  32.3 °C 69.0 °F /  20.6 °C 29.97 in /  1014.8 hPa West 2.3 mph /  3.7 km/h 3.5 mph /  5.6 km/h 50 % 0.00 in /  0 mm
10:39 90.8 °F /  32.7 °C 70.7 °F /  21.5 °C 29.96 in /  1014.4 hPa WNW 3.4 mph /  5.5 km/h 4.6 mph /  7.4 km/h 52 % 0.00 in /  0 mm
10:44 91.4 °F /  33 °C 70.7 °F /  21.5 °C 29.97 in /  1014.8 hPa NW 1.3 mph /  2.1 km/h 3.5 mph /  5.6 km/h 51 % 0.00 in /  0 mm
10:49 91.9 °F /  33.3 °C 69.4 °F /  20.8 °C 29.96 in /  1014.4 hPa NW 5.2 mph /  8.4 km/h 7.0 mph /  11.3 km/h 48 % 0.00 in /  0 mm
10:54 92.2 °F /  33.4 °C 69.7 °F /  20.9 °C 29.96 in /  1014.4 hPa NW 0.8 mph /  1.3 km/h 3.5 mph /  5.6 km/h 48 % 0.00 in /  0 mm
10:59 92.6 °F /  33.7 °C 69.4 °F /  20.8 °C 29.96 in /  1014.4 hPa North 1.7 mph /  2.7 km/h 4.0 mph /  6.4 km/h 47 % 0.00 in /  0 mm
11:04 92.9 °F /  33.8 °C 69.7 °F /  20.9 °C 29.96 in /  1014.4 hPa WNW 3.8 mph /  6.1 km/h 5.8 mph /  9.3 km/h 47 % 0.00 in /  0 mm
11:09 93.3 °F /  34.1 °C 70.1 °F /  21.2 °C 29.96 in /  1014.4 hPa WNW 3.5 mph /  5.6 km/h 5.8 mph /  9.3 km/h 47 % 0.00 in /  0 mm
11:14 93.7 °F /  34.3 °C 72.3 °F /  22.4 °C 29.96 in /  1014.4 hPa NE 1.5 mph /  2.4 km/h 4.6 mph /  7.4 km/h 50 % 0.00 in /  0 mm
11:19 94.0 °F /  34.4 °C 71.3 °F /  21.8 °C 29.96 in /  1014.4 hPa North 1.9 mph /  3.1 km/h 3.5 mph /  5.6 km/h 48 % 0.00 in /  0 mm
11:24 94.1 °F /  34.5 °C 69.5 °F /  20.8 °C 29.97 in /  1014.8 hPa NW 1.4 mph /  2.3 km/h 3.0 mph /  4.8 km/h 45 % 0.00 in /  0 mm
11:29 94.1 °F /  34.5 °C 70.2 °F /  21.2 °C 29.96 in /  1014.4 hPa NW 2.0 mph /  3.2 km/h 3.5 mph /  5.6 km/h 46 % 0.00 in /  0 mm
11:34 94.1 °F /  34.5 °C 69.5 °F /  20.8 °C 29.96 in /  1014.4 hPa North 2.8 mph /  4.5 km/h 6.0 mph /  9.7 km/h 45 % 0.00 in /  0 mm
11:39 94.0 °F /  34.4 °C 71.3 °F /  21.8 °C 29.96 in /  1014.4 hPa NW 0.7 mph /  1.1 km/h 3.5 mph /  5.6 km/h 48 % 0.00 in /  0 mm
11:44 94.0 °F /  34.4 °C 68.8 °F /  20.4 °C 29.96 in /  1014.4 hPa WNW 2.7 mph /  4.3 km/h 6.9 mph /  11.1 km/h 44 % 0.00 in /  0 mm
11:49 94.2 °F /  34.6 °C 70.2 °F /  21.2 °C 29.96 in /  1014.4 hPa WNW 2.6 mph /  4.2 km/h 4.0 mph /  6.4 km/h 46 % 0.00 in /  0 mm
11:54 94.3 °F /  34.6 °C 70.3 °F /  21.3 °C 29.95 in /  1014.1 hPa NNE 2.0 mph /  3.2 km/h 3.5 mph /  5.6 km/h 46 % 0.00 in /  0 mm
11:59 94.4 °F /  34.7 °C 69.8 °F /  21 °C 29.96 in /  1014.4 hPa NW 1.7 mph /  2.7 km/h 4.6 mph /  7.4 km/h 45 % 0.00 in /  0 mm
12:04 94.6 °F /  34.8 °C 72.5 °F /  22.5 °C 29.96 in /  1014.4 hPa WNW 2.3 mph /  3.7 km/h 7.0 mph /  11.3 km/h 49 % 0.00 in /  0 mm
12:10 94.8 °F /  34.9 °C 70.1 °F /  21.2 °C 29.96 in /  1014.4 hPa North 3.2 mph /  5.1 km/h 3.5 mph /  5.6 km/h 45 % 0.00 in /  0 mm
12:15 94.8 °F /  34.9 °C 70.1 °F /  21.2 °C 29.95 in /  1014.1 hPa WNW 3.0 mph /  4.8 km/h 3.0 mph /  4.8 km/h 45 % 0.00 in /  0 mm
12:20 94.9 °F /  34.9 °C 68.2 °F /  20.1 °C 29.95 in /  1014.1 hPa NW 1.9 mph /  3.1 km/h 4.0 mph /  6.4 km/h 42 % 0.00 in /  0 mm
12:25 95.0 °F /  35 °C 69.7 °F /  20.9 °C 29.95 in /  1014.1 hPa WNW 2.4 mph /  3.9 km/h 5.8 mph /  9.3 km/h 44 % 0.00 in /  0 mm
12:30 95.1 °F /  35.1 °C 69.8 °F /  21 °C 29.95 in /  1014.1 hPa NW 3.4 mph /  5.5 km/h 5.8 mph /  9.3 km/h 44 % 0.00 in /  0 mm
12:35 95.2 °F /  35.1 °C 70.5 °F /  21.4 °C 29.95 in /  1014.1 hPa North 1.4 mph /  2.3 km/h 7.0 mph /  11.3 km/h 45 % 0.00 in /  0 mm
12:40 95.4 °F /  35.2 °C 70.0 °F /  21.1 °C 29.95 in /  1014.1 hPa WNW 2.8 mph /  4.5 km/h 5.8 mph /  9.3 km/h 44 % 0.00 in /  0 mm
12:45 95.5 °F /  35.3 °C 70.8 °F /  21.6 °C 29.95 in /  1014.1 hPa NE 3.2 mph /  5.1 km/h 5.8 mph /  9.3 km/h 45 % 0.00 in /  0 mm
12:50 95.6 °F /  35.3 °C 68.8 °F /  20.4 °C 29.95 in /  1014.1 hPa WNW 1.7 mph /  2.7 km/h 5.8 mph /  9.3 km/h 42 % 0.00 in /  0 mm
12:55 95.7 °F /  35.4 °C 68.9 °F /  20.5 °C 29.95 in /  1014.1 hPa NNE 2.7 mph /  4.3 km/h 4.6 mph /  7.4 km/h 42 % 0.00 in /  0 mm
13:00 95.8 °F /  35.4 °C 68.3 °F /  20.2 °C 29.95 in /  1014.1 hPa NW 3.0 mph /  4.8 km/h 8.1 mph /  13 km/h 41 % 0.00 in /  0 mm
13:05 96.0 °F /  35.6 °C 69.2 °F /  20.7 °C 29.95 in /  1014.1 hPa West 1.8 mph /  2.9 km/h 4.0 mph /  6.4 km/h 42 % 0.00 in /  0 mm
13:10 96.1 °F /  35.6 °C 68.6 °F /  20.3 °C 29.94 in /  1013.8 hPa ENE 3.7 mph /  6 km/h 5.8 mph /  9.3 km/h 41 % 0.00 in /  0 mm
13:15 95.9 °F /  35.5 °C 67.7 °F /  19.8 °C 29.94 in /  1013.8 hPa NNE 3.7 mph /  6 km/h 5.0 mph /  8 km/h 40 % 0.00 in /  0 mm
13:20 95.9 °F /  35.5 °C 69.1 °F /  20.6 °C 29.94 in /  1013.8 hPa NE 1.2 mph /  1.9 km/h 5.8 mph /  9.3 km/h 42 % 0.00 in /  0 mm
13:25 96.0 °F /  35.6 °C 67.0 °F /  19.4 °C 29.94 in /  1013.8 hPa NNW 3.8 mph /  6.1 km/h 5.0 mph /  8 km/h 39 % 0.00 in /  0 mm
13:30 96.2 °F /  35.7 °C 68.7 °F /  20.4 °C 29.94 in /  1013.8 hPa North 2.8 mph /  4.5 km/h 4.6 mph /  7.4 km/h 41 % 0.00 in /  0 mm
13:35 96.4 °F /  35.8 °C 69.6 °F /  20.9 °C 29.94 in /  1013.8 hPa WNW 1.4 mph /  2.3 km/h 3.5 mph /  5.6 km/h 42 % 0.00 in /  0 mm
13:40 96.6 °F /  35.9 °C 69.7 °F /  20.9 °C 29.94 in /  1013.8 hPa NW 0.7 mph /  1.1 km/h 2.3 mph /  3.7 km/h 42 % 0.00 in /  0 mm
13:45 96.9 °F /  36.1 °C 67.8 °F /  19.9 °C 29.93 in /  1013.4 hPa NW 1.3 mph /  2.1 km/h 2.3 mph /  3.7 km/h 39 % 0.00 in /  0 mm
13:50 97.1 °F /  36.2 °C 70.9 °F /  21.6 °C 29.93 in /  1013.4 hPa NW 0.1 mph /  0.2 km/h 2.3 mph /  3.7 km/h 43 % 0.00 in /  0 mm
13:55 97.3 °F /  36.3 °C 69.7 °F /  20.9 °C 29.93 in /  1013.4 hPa NW 0.8 mph /  1.3 km/h 3.5 mph /  5.6 km/h 41 % 0.00 in /  0 mm
14:00 97.7 °F /  36.5 °C 70.7 °F /  21.5 °C 29.92 in /  1013.1 hPa NW 0.4 mph /  0.6 km/h 2.3 mph /  3.7 km/h 42 % 0.00 in /  0 mm
14:05 97.9 °F /  36.6 °C 71.6 °F /  22 °C 29.92 in /  1013.1 hPa WNW 1.6 mph /  2.6 km/h 4.0 mph /  6.4 km/h 43 % 0.00 in /  0 mm
14:11 98.2 °F /  36.8 °C 70.5 °F /  21.4 °C 29.92 in /  1013.1 hPa NNE 2.0 mph /  3.2 km/h 4.6 mph /  7.4 km/h 41 % 0.00 in /  0 mm
14:16 98.2 °F /  36.8 °C 70.5 °F /  21.4 °C 29.92 in /  1013.1 hPa NNE 1.0 mph /  1.6 km/h 3.0 mph /  4.8 km/h 41 % 0.00 in /  0 mm
14:21 98.3 °F /  36.8 °C 71.3 °F /  21.8 °C 29.92 in /  1013.1 hPa NNE 1.0 mph /  1.6 km/h 5.0 mph /  8 km/h 42 % 0.00 in /  0 mm
14:26 98.4 °F /  36.9 °C 70.6 °F /  21.4 °C 29.92 in /  1013.1 hPa Calm   5.0 mph /  8 km/h 41 % 0.00 in /  0 mm
14:36 98.2 °F /  36.8 °C 69.0 °F /  20.6 °C 29.91 in /  1012.8 hPa North 3.0 mph /  4.8 km/h 5.0 mph /  8 km/h 39 % 0.00 in /  0 mm
14:41 98.2 °F /  36.8 °C 69.0 °F /  20.6 °C 29.90 in /  1012.4 hPa West 1.0 mph /  1.6 km/h 6.0 mph /  9.7 km/h 39 % 0.00 in /  0 mm
14:45 98.3 °F /  36.8 °C 69.8 °F /  21 °C 29.90 in /  1012.4 hPa SW 5.1 mph /  8.2 km/h 5.8 mph /  9.3 km/h 40 % 0.00 in /  0 mm
14:50 98.3 °F /  36.8 °C 69.8 °F /  21 °C 29.90 in /  1012.4 hPa West 1.8 mph /  2.9 km/h 5.8 mph /  9.3 km/h 40 % 0.00 in /  0 mm
14:56 98.4 °F /  36.9 °C 66.8 °F /  19.3 °C 29.90 in /  1012.4 hPa WSW 3.0 mph /  4.8 km/h 8.0 mph /  12.9 km/h 36 % 0.00 in /  0 mm
15:01 98.3 °F /  36.8 °C 67.6 °F /  19.8 °C 29.90 in /  1012.4 hPa WSW 4.7 mph /  7.6 km/h 6.9 mph /  11.1 km/h 37 % 0.00 in /  0 mm
15:06 98.3 °F /  36.8 °C 66.8 °F /  19.3 °C 29.90 in /  1012.4 hPa SSW 6.0 mph /  9.7 km/h 8.1 mph /  13 km/h 36 % 0.00 in /  0 mm
15:11 98.1 °F /  36.7 °C 68.2 °F /  20.1 °C 29.90 in /  1012.4 hPa WNW 3.0 mph /  4.8 km/h 5.8 mph /  9.3 km/h 38 % 0.00 in /  0 mm
15:16 98.2 °F /  36.8 °C 68.2 °F /  20.1 °C 29.90 in /  1012.4 hPa WSW 3.5 mph /  5.6 km/h 5.0 mph /  8 km/h 38 % 0.00 in /  0 mm
15:21 98.2 °F /  36.8 °C 69.0 °F /  20.6 °C 29.90 in /  1012.4 hPa WNW 2.9 mph /  4.7 km/h 5.8 mph /  9.3 km/h 39 % 0.00 in /  0 mm
15:26 98.2 °F /  36.8 °C 67.5 °F /  19.7 °C 29.90 in /  1012.4 hPa SW 4.6 mph /  7.4 km/h 9.2 mph /  14.8 km/h 37 % 0.00 in /  0 mm
15:31 98.2 °F /  36.8 °C 67.5 °F /  19.7 °C 29.90 in /  1012.4 hPa NW 2.1 mph /  3.4 km/h 3.5 mph /  5.6 km/h 37 % 0.00 in /  0 mm
15:36 98.3 °F /  36.8 °C 68.3 °F /  20.2 °C 29.90 in /  1012.4 hPa WSW 3.0 mph /  4.8 km/h 5.0 mph /  8 km/h 38 % 0.00 in /  0 mm
15:41 98.3 °F /  36.8 °C 69.8 °F /  21 °C 29.89 in /  1012.1 hPa West 2.7 mph /  4.3 km/h 4.0 mph /  6.4 km/h 40 % 0.00 in /  0 mm
15:46 98.2 °F /  36.8 °C 66.7 °F /  19.3 °C 29.89 in /  1012.1 hPa NW 2.5 mph /  4 km/h 4.6 mph /  7.4 km/h 36 % 0.00 in /  0 mm
15:51 98.2 °F /  36.8 °C 67.5 °F /  19.7 °C 29.89 in /  1012.1 hPa SW 1.6 mph /  2.6 km/h 6.0 mph /  9.7 km/h 37 % 0.00 in /  0 mm
15:56 98.2 °F /  36.8 °C 67.5 °F /  19.7 °C 29.89 in /  1012.1 hPa NNW 4.0 mph /  6.4 km/h 6.0 mph /  9.7 km/h 37 % 0.00 in /  0 mm
16:01 98.2 °F /  36.8 °C 66.7 °F /  19.3 °C 29.89 in /  1012.1 hPa SSW 2.5 mph /  4 km/h 6.9 mph /  11.1 km/h 36 % 0.00 in /  0 mm
16:06 98.3 °F /  36.8 °C 67.6 °F /  19.8 °C 29.89 in /  1012.1 hPa WSW 1.3 mph /  2.1 km/h 6.0 mph /  9.7 km/h 37 % 0.00 in /  0 mm
16:11 98.3 °F /  36.8 °C 66.8 °F /  19.3 °C 29.89 in /  1012.1 hPa West 3.3 mph /  5.3 km/h 4.6 mph /  7.4 km/h 36 % 0.00 in /  0 mm
16:16 98.3 °F /  36.8 °C 65.9 °F /  18.8 °C 29.89 in /  1012.1 hPa West 2.6 mph /  4.2 km/h 3.5 mph /  5.6 km/h 35 % 0.00 in /  0 mm
16:22 98.3 °F /  36.8 °C 66.8 °F /  19.3 °C 29.89 in /  1012.1 hPa SSW 2.4 mph /  3.9 km/h 3.5 mph /  5.6 km/h 36 % 0.00 in /  0 mm
16:27 98.2 °F /  36.8 °C 66.7 °F /  19.3 °C 29.89 in /  1012.1 hPa WSW 3.4 mph /  5.5 km/h 6.9 mph /  11.1 km/h 36 % 0.00 in /  0 mm
16:32 98.1 °F /  36.7 °C 66.6 °F /  19.2 °C 29.89 in /  1012.1 hPa WSW 3.2 mph /  5.1 km/h 6.9 mph /  11.1 km/h 36 % 0.00 in /  0 mm
16:37 97.9 °F /  36.6 °C 66.4 °F /  19.1 °C 29.88 in /  1011.7 hPa SSW 4.2 mph /  6.8 km/h 6.9 mph /  11.1 km/h 36 % 0.00 in /  0 mm
16:42 97.8 °F /  36.6 °C 67.9 °F /  19.9 °C 29.88 in /  1011.7 hPa SSW 2.1 mph /  3.4 km/h 3.5 mph /  5.6 km/h 38 % 0.00 in /  0 mm
16:47 97.7 °F /  36.5 °C 67.8 °F /  19.9 °C 29.88 in /  1011.7 hPa SSW 4.8 mph /  7.7 km/h 6.9 mph /  11.1 km/h 38 % 0.00 in /  0 mm
16:52 97.5 °F /  36.4 °C 67.6 °F /  19.8 °C 29.88 in /  1011.7 hPa SW 0.6 mph /  1 km/h 3.5 mph /  5.6 km/h 38 % 0.00 in /  0 mm
16:57 97.3 °F /  36.3 °C 68.9 °F /  20.5 °C 29.87 in /  1011.4 hPa SSW 4.0 mph /  6.4 km/h 6.0 mph /  9.7 km/h 40 % 0.00 in /  0 mm
17:02 96.9 °F /  36.1 °C 67.8 °F /  19.9 °C 29.87 in /  1011.4 hPa South 3.3 mph /  5.3 km/h 6.0 mph /  9.7 km/h 39 % 0.00 in /  0 mm
17:07 96.5 °F /  35.8 °C 69.7 °F /  20.9 °C 29.88 in /  1011.7 hPa WSW 1.5 mph /  2.4 km/h 1.5 mph /  2.4 km/h 42 % 0.00 in /  0 mm
17:12 96.2 °F /  35.7 °C 68.7 °F /  20.4 °C 29.87 in /  1011.4 hPa SW 0.5 mph /  0.8 km/h 3.5 mph /  5.6 km/h 41 % 0.00 in /  0 mm
17:17 95.8 °F /  35.4 °C 69.0 °F /  20.6 °C 29.87 in /  1011.4 hPa WSW 0.9 mph /  1.4 km/h 3.5 mph /  5.6 km/h 42 % 0.00 in /  0 mm
17:22 95.4 °F /  35.2 °C 68.0 °F /  20 °C 29.87 in /  1011.4 hPa SE 0.5 mph /  0.8 km/h 3.5 mph /  5.6 km/h 41 % 0.00 in /  0 mm
17:27 94.9 °F /  34.9 °C 67.5 °F /  19.7 °C 29.88 in /  1011.7 hPa SW 0.5 mph /  0.8 km/h 3.0 mph /  4.8 km/h 41 % 0.00 in /  0 mm
17:32 94.4 °F /  34.7 °C 68.5 °F /  20.3 °C 29.87 in /  1011.4 hPa SE 1.1 mph /  1.8 km/h 3.0 mph /  4.8 km/h 43 % 0.00 in /  0 mm
17:38 93.9 °F /  34.4 °C 68.7 °F /  20.4 °C 29.87 in /  1011.4 hPa SW 0.9 mph /  1.4 km/h 3.5 mph /  5.6 km/h 44 % 0.00 in /  0 mm
17:43 93.3 °F /  34.1 °C 67.5 °F /  19.7 °C 29.87 in /  1011.4 hPa SSW 2.6 mph /  4.2 km/h 4.6 mph /  7.4 km/h 43 % 0.00 in /  0 mm
17:48 92.9 °F /  33.8 °C 67.8 °F /  19.9 °C 29.87 in /  1011.4 hPa SSW 0.8 mph /  1.3 km/h 3.5 mph /  5.6 km/h 44 % 0.00 in /  0 mm
17:53 92.6 °F /  33.7 °C 67.5 °F /  19.7 °C 29.87 in /  1011.4 hPa SE 0.6 mph /  1 km/h 5.0 mph /  8 km/h 44 % 0.00 in /  0 mm
17:58 92.2 °F /  33.4 °C 67.8 °F /  19.9 °C 29.87 in /  1011.4 hPa SSW 1.8 mph /  2.9 km/h 3.5 mph /  5.6 km/h 45 % 0.00 in /  0 mm
18:03 91.8 °F /  33.2 °C 67.4 °F /  19.7 °C 29.87 in /  1011.4 hPa SSW 0.2 mph /  0.3 km/h 2.3 mph /  3.7 km/h 45 % 0.00 in /  0 mm
18:08 91.5 °F /  33.1 °C 67.8 °F /  19.9 °C 29.86 in /  1011.1 hPa SSE 0.8 mph /  1.3 km/h 2.3 mph /  3.7 km/h 46 % 0.00 in /  0 mm
18:13 91.2 °F /  32.9 °C 67.5 °F /  19.7 °C 29.86 in /  1011.1 hPa SW 0.7 mph /  1.1 km/h 3.0 mph /  4.8 km/h 46 % 0.00 in /  0 mm
18:18 90.9 °F /  32.7 °C 67.3 °F /  19.6 °C 29.86 in /  1011.1 hPa SSW 0.8 mph /  1.3 km/h 3.5 mph /  5.6 km/h 46 % 0.00 in /  0 mm
18:23 90.6 °F /  32.6 °C 67.0 °F /  19.4 °C 29.86 in /  1011.1 hPa SSE 0.4 mph /  0.6 km/h 2.3 mph /  3.7 km/h 46 % 0.00 in /  0 mm
18:28 90.3 °F /  32.4 °C 67.3 °F /  19.6 °C 29.86 in /  1011.1 hPa ESE 0.5 mph /  0.8 km/h 5.0 mph /  8 km/h 47 % 0.00 in /  0 mm
18:33 90.0 °F /  32.2 °C 67.1 °F /  19.5 °C 29.87 in /  1011.4 hPa SSW 0.6 mph /  1 km/h 2.3 mph /  3.7 km/h 47 % 0.00 in /  0 mm
18:38 89.8 °F /  32.1 °C 67.5 °F /  19.7 °C 29.87 in /  1011.4 hPa WSW 0.8 mph /  1.3 km/h 2.3 mph /  3.7 km/h 48 % 0.00 in /  0 mm
18:43 89.6 °F /  32 °C 67.9 °F /  19.9 °C 29.87 in /  1011.4 hPa SSW 1.2 mph /  1.9 km/h 3.5 mph /  5.6 km/h 49 % 0.00 in /  0 mm
18:48 89.3 °F /  31.8 °C 67.0 °F /  19.4 °C 29.87 in /  1011.4 hPa SW 1.4 mph /  2.3 km/h 3.5 mph /  5.6 km/h 48 % 0.00 in /  0 mm
18:53 89.2 °F /  31.8 °C 67.5 °F /  19.7 °C 29.87 in /  1011.4 hPa WSW 0.6 mph /  1 km/h 2.3 mph /  3.7 km/h 49 % 0.00 in /  0 mm
18:58 88.9 °F /  31.6 °C 67.3 °F /  19.6 °C 29.87 in /  1011.4 hPa Calm   1.2 mph /  1.9 km/h 49 % 0.00 in /  0 mm
19:03 88.7 °F /  31.5 °C 67.1 °F /  19.5 °C 29.87 in /  1011.4 hPa WSW 0.3 mph /  0.5 km/h 3.5 mph /  5.6 km/h 49 % 0.00 in /  0 mm
19:08 88.5 °F /  31.4 °C 66.9 °F /  19.4 °C 29.87 in /  1011.4 hPa South 1.2 mph /  1.9 km/h 2.3 mph /  3.7 km/h 49 % 0.00 in /  0 mm
19:13 88.3 °F /  31.3 °C 67.3 °F /  19.6 °C 29.87 in /  1011.4 hPa South 0.1 mph /  0.2 km/h 1.2 mph /  1.9 km/h 50 % 0.00 in /  0 mm
19:18 88.2 °F /  31.2 °C 67.2 °F /  19.6 °C 29.87 in /  1011.4 hPa SW 0.6 mph /  1 km/h 2.3 mph /  3.7 km/h 50 % 0.00 in /  0 mm
19:23 88.0 °F /  31.1 °C 67.6 °F /  19.8 °C 29.87 in /  1011.4 hPa SW 0.6 mph /  1 km/h 2.0 mph /  3.2 km/h 51 % 0.00 in /  0 mm
19:28 87.8 °F /  31 °C 67.4 °F /  19.7 °C 29.87 in /  1011.4 hPa SW 0.1 mph /  0.2 km/h 1.2 mph /  1.9 km/h 51 % 0.00 in /  0 mm
19:33 87.6 °F /  30.9 °C 67.2 °F /  19.6 °C 29.87 in /  1011.4 hPa SW 1.1 mph /  1.8 km/h 2.3 mph /  3.7 km/h 51 % 0.00 in /  0 mm
19:38 87.4 °F /  30.8 °C 67.6 °F /  19.8 °C 29.87 in /  1011.4 hPa SW 0.2 mph /  0.3 km/h 1.2 mph /  1.9 km/h 52 % 0.00 in /  0 mm
19:39 87.4 °F /  30.8 °C 67.6 °F /  19.8 °C 29.87 in /  1011.4 hPa Calm   1.2 mph /  1.9 km/h 52 % 0.00 in /  0 mm
19:44 87.1 °F /  30.6 °C 67.3 °F /  19.6 °C 29.87 in /  1011.4 hPa Calm     52 % 0.00 in /  0 mm
19:50 86.9 °F /  30.5 °C 67.7 °F /  19.8 °C 29.87 in /  1011.4 hPa Calm   1.2 mph /  1.9 km/h 53 % 0.00 in /  0 mm
19:55 86.6 °F /  30.3 °C 67.4 °F /  19.7 °C 29.87 in /  1011.4 hPa Calm   1.2 mph /  1.9 km/h 53 % 0.00 in /  0 mm
20:00 86.3 °F /  30.2 °C 67.2 °F /  19.6 °C 29.87 in /  1011.4 hPa SW 0.1 mph /  0.2 km/h 1.2 mph /  1.9 km/h 53 % 0.00 in /  0 mm
20:05 86.1 °F /  30.1 °C 67.5 °F /  19.7 °C 29.87 in /  1011.4 hPa SW 0.2 mph /  0.3 km/h 1.2 mph /  1.9 km/h 54 % 0.00 in /  0 mm
20:10 85.8 °F /  29.9 °C 67.2 °F /  19.6 °C 29.87 in /  1011.4 hPa WSW 0.3 mph /  0.5 km/h 2.0 mph /  3.2 km/h 54 % 0.00 in /  0 mm
20:15 85.5 °F /  29.7 °C 67.0 °F /  19.4 °C 29.87 in /  1011.4 hPa Calm   1.2 mph /  1.9 km/h 54 % 0.00 in /  0 mm
20:20 85.2 °F /  29.6 °C 67.2 °F /  19.6 °C 29.87 in /  1011.4 hPa Calm     55 % 0.00 in /  0 mm
20:25 84.9 °F /  29.4 °C 66.9 °F /  19.4 °C 29.87 in /  1011.4 hPa WSW 0.9 mph /  1.4 km/h 3.5 mph /  5.6 km/h 55 % 0.00 in /  0 mm
20:28 84.7 °F /  29.3 °C 66.7 °F /  19.3 °C 29.87 in /  1011.4 hPa Calm   1.2 mph /  1.9 km/h 55 % 0.00 in /  0 mm
20:33 84.4 °F /  29.1 °C 67.0 °F /  19.4 °C 29.87 in /  1011.4 hPa Calm     56 % 0.00 in /  0 mm
20:38 84.1 °F /  28.9 °C 67.2 °F /  19.6 °C 29.87 in /  1011.4 hPa Calm     57 % 0.00 in /  0 mm
20:43 83.8 °F /  28.8 °C 66.9 °F /  19.4 °C 29.87 in /  1011.4 hPa Calm     57 % 0.00 in /  0 mm
20:48 83.6 °F /  28.7 °C 66.8 °F /  19.3 °C 29.87 in /  1011.4 hPa Calm   1.2 mph /  1.9 km/h 57 % 0.00 in /  0 mm
20:53 83.3 °F /  28.5 °C 67.0 °F /  19.4 °C 29.87 in /  1011.4 hPa Calm     58 % 0.00 in /  0 mm
20:54 83.2 °F /  28.4 °C 66.9 °F /  19.4 °C 29.87 in /  1011.4 hPa Calm     58 % 0.00 in /  0 mm
20:59 82.9 °F /  28.3 °C 66.6 °F /  19.2 °C 29.87 in /  1011.4 hPa Calm     58 % 0.00 in /  0 mm
21:04 82.7 °F /  28.2 °C 66.9 °F /  19.4 °C 29.87 in /  1011.4 hPa Calm     59 % 0.00 in /  0 mm
21:09 82.4 °F /  28 °C 66.6 °F /  19.2 °C 29.87 in /  1011.4 hPa Calm   2.3 mph /  3.7 km/h 59 % 0.00 in /  0 mm
21:14 82.2 °F /  27.9 °C 66.4 °F /  19.1 °C 29.88 in /  1011.7 hPa Calm     59 % 0.00 in /  0 mm
21:19 81.9 °F /  27.7 °C 66.6 °F /  19.2 °C 29.88 in /  1011.7 hPa Calm     60 % 0.00 in /  0 mm
21:24 81.6 °F /  27.6 °C 66.4 °F /  19.1 °C 29.88 in /  1011.7 hPa Calm     60 % 0.00 in /  0 mm
21:29 81.4 °F /  27.4 °C 66.7 °F /  19.3 °C 29.88 in /  1011.7 hPa SW 0.1 mph /  0.2 km/h   61 % 0.00 in /  0 mm
21:34 81.1 °F /  27.3 °C 66.4 °F /  19.1 °C 29.88 in /  1011.7 hPa Calm   1.0 mph /  1.6 km/h 61 % 0.00 in /  0 mm
21:40 80.9 °F /  27.2 °C 66.7 °F /  19.3 °C 29.88 in /  1011.7 hPa Calm     62 % 0.00 in /  0 mm
21:45 80.6 °F /  27 °C 66.4 °F /  19.1 °C 29.88 in /  1011.7 hPa Calm   1.2 mph /  1.9 km/h 62 % 0.00 in /  0 mm
21:50 80.4 °F /  26.9 °C 66.2 °F /  19 °C 29.88 in /  1011.7 hPa Calm     62 % 0.00 in /  0 mm
21:55 80.2 °F /  26.8 °C 66.0 °F /  18.9 °C 29.89 in /  1012.1 hPa Calm     62 % 0.00 in /  0 mm
22:00 80.0 °F /  26.7 °C 65.8 °F /  18.8 °C 29.89 in /  1012.1 hPa Calm     62 % 0.00 in /  0 mm
22:05 79.9 °F /  26.6 °C 66.2 °F /  19 °C 29.88 in /  1011.7 hPa Calm     63 % 0.00 in /  0 mm
22:10 79.7 °F /  26.5 °C 65.5 °F /  18.6 °C 29.88 in /  1011.7 hPa Calm     62 % 0.00 in /  0 mm
22:15 79.6 °F /  26.4 °C 65.9 °F /  18.8 °C 29.89 in /  1012.1 hPa Calm     63 % 0.00 in /  0 mm
22:20 79.5 °F /  26.4 °C 65.8 °F /  18.8 °C 29.89 in /  1012.1 hPa Calm     63 % 0.00 in /  0 mm
22:25 79.3 °F /  26.3 °C 65.6 °F /  18.7 °C 29.89 in /  1012.1 hPa Calm     63 % 0.00 in /  0 mm
22:30 79.2 °F /  26.2 °C 65.5 °F /  18.6 °C 29.89 in /  1012.1 hPa Calm     63 % 0.00 in /  0 mm
22:35 79.1 °F /  26.2 °C 65.9 °F /  18.8 °C 29.89 in /  1012.1 hPa Calm     64 % 0.00 in /  0 mm
22:40 79.0 °F /  26.1 °C 65.8 °F /  18.8 °C 29.88 in /  1011.7 hPa Calm     64 % 0.00 in /  0 mm
22:45 78.8 °F /  26 °C 65.1 °F /  18.4 °C 29.88 in /  1011.7 hPa Calm     63 % 0.00 in /  0 mm
22:50 78.7 °F /  25.9 °C 65.5 °F /  18.6 °C 29.88 in /  1011.7 hPa SW 0.1 mph /  0.2 km/h 1.2 mph /  1.9 km/h 64 % 0.00 in /  0 mm
22:55 78.5 °F /  25.8 °C 65.3 °F /  18.5 °C 29.88 in /  1011.7 hPa SW 0.1 mph /  0.2 km/h 2.0 mph /  3.2 km/h 64 % 0.00 in /  0 mm
23:00 78.4 °F /  25.8 °C 65.2 °F /  18.4 °C 29.88 in /  1011.7 hPa Calm   1.2 mph /  1.9 km/h 64 % 0.00 in /  0 mm
23:05 78.3 °F /  25.7 °C 65.1 °F /  18.4 °C 29.88 in /  1011.7 hPa Calm     64 % 0.00 in /  0 mm
23:10 78.2 °F /  25.7 °C 65.0 °F /  18.3 °C 29.88 in /  1011.7 hPa SW 0.3 mph /  0.5 km/h 1.2 mph /  1.9 km/h 64 % 0.00 in /  0 mm
23:15 78.2 °F /  25.7 °C 65.5 °F /  18.6 °C 29.88 in /  1011.7 hPa SW 0.9 mph /  1.4 km/h 3.5 mph /  5.6 km/h 65 % 0.00 in /  0 mm
23:20 78.1 °F /  25.6 °C 65.4 °F /  18.6 °C 29.88 in /  1011.7 hPa Calm   2.3 mph /  3.7 km/h 65 % 0.00 in /  0 mm
23:25 78.0 °F /  25.6 °C 64.8 °F /  18.2 °C 29.88 in /  1011.7 hPa Calm     64 % 0.00 in /  0 mm
23:30 78.0 °F /  25.6 °C 64.8 °F /  18.2 °C 29.88 in /  1011.7 hPa Calm     64 % 0.00 in /  0 mm
23:35 77.9 °F /  25.5 °C 65.2 °F /  18.4 °C 29.88 in /  1011.7 hPa Calm     65 % 0.00 in /  0 mm
23:41 77.9 °F /  25.5 °C 65.2 °F /  18.4 °C 29.88 in /  1011.7 hPa Calm   1.0 mph /  1.6 km/h 65 % 0.00 in /  0 mm
23:46 77.8 °F /  25.4 °C 65.1 °F /  18.4 °C 29.88 in /  1011.7 hPa Calm   1.0 mph /  1.6 km/h 65 % 0.00 in /  0 mm
23:51 77.8 °F /  25.4 °C 65.1 °F /  18.4 °C 29.88 in /  1011.7 hPa Calm     65 % 0.00 in /  0 mm
23:56 77.7 °F /  25.4 °C 65.0 °F /  18.3 °C 29.88 in /  1011.7 hPa SW 0.1 mph /  0.2 km/h 1.2 mph /  1.9 km/h 65 % 0.00 in /  0 mm
Crab Meadow Weather
Compliments of Weather Underground - 3 mb

Script developed by  Jim McMurry - jmcmurry@mwt.net Adapted for the template by  Wim van der Kuil - Leuven-Template.eu

Extremes: The longest period without measurable rainfall in the United States was 767 days at Bagdad, California.